Aviation Digital Data Service (ADDS)

Output produced by METARs form (1123 UTC 23 June 2021)
found at http://www.aviationweather.gov/metar/data/
 
METAR text: WSSL 231100Z 25005KT 220V310 9999 FEW018 BKN300 30/21 Q1009
Conditions at: WSSL (SINGAPORE/SELETA, SG) observed 1100 UTC 23 June 2021
Temperature: 30.0°C (86°F)
Dewpoint: 21.0°C (70°F) [RH = 59%]
Pressure (altimeter): 29.79 inches Hg (1009.0 mb)
Winds: from the WSW (250 degrees) at 6 MPH (5 knots; 2.6 m/s)
Visibility: 6 or more miles (10+ km)
Ceiling: 30000 feet AGL
Clouds: few clouds at 1800 feet AGL
broken clouds at 30000 feet AGL
Weather: no significant weather observed at this time

Forecast for: WSSL (SINGAPORE/SELETA, SG)
Text: TAF WSSL 231100Z 2312/2418 21007KT 9999 FEW015CB SCT020
Forecast period: 1200 UTC 23 June 2021 to 1800 UTC 24 June 2021
Forecast type: FROM: standard forecast or significant change
Winds: from the SSW (210 degrees) at 8 MPH (7 knots; 3.6 m/s)
Visibility: 6 or more miles (10+ km)
Ceiling: at least 12,000 feet AGL
Clouds: few clouds at 1500 feet AGL
scattered clouds at 2000 feet AGL
Weather: no significant weather forecast for this period
Text: TEMPO 2322/2401 4500 SHRA FEW012CB BKN015
Forecast period: 2200 UTC 23 June 2021 to 0100 UTC 24 June 2021
Forecast type: TEMPORARY: The following changes expected for less than half the time period
Visibility: 2.80 miles (4.51 km)
Ceiling: 1500 feet AGL
Clouds: few clouds at 1200 feet AGL
broken clouds at 1500 feet AGL
Weather: SHRA  (rain showers)